Westmount, Canada
Current Conditions -  °F | °C
As of 11:22 AM on Sunday 23 Nov 2014 (Local Time) from CYUL Reporting Station
Haze Haze  
Wind Chill: 37°   Ceiling: 200
Heat Index: 41°   Visibility: 0.75mi
Dew Point: 41°   Wind: 6mph
Humidity: 100%   Direction: 200°SSW
Pressure: 30.03"   Gusts: NA
Location:  45.48°N, 73.6°W
Report Text: CYUL 231622Z 20005KT 3/4SM R24R/P6000FT/U R24L/P6000FT/D BR OVC002 05/05 A3003 RMK ST8 SLP169
Loading
Personal Weather Stations






























Interactive Weather Map New forecast layout! Learn more

10-Day Weather Forecast

Advertisements
Track Severe Weather on mobile